createdAt,value
2023-03-15T00:02:01.552Z,9.29
2023-03-15T00:04:29.903Z,9.19
2023-03-15T00:06:57.393Z,9.21
2023-03-15T00:09:25.305Z,9.20
2023-03-15T00:11:54.615Z,9.06
2023-03-15T00:14:22.074Z,9.07
2023-03-15T00:16:49.452Z,8.96
2023-03-15T00:19:17.093Z,8.95
2023-03-15T00:21:44.581Z,8.96
2023-03-15T00:24:11.834Z,8.93
2023-03-15T00:26:39.543Z,8.92
2023-03-15T00:29:09.943Z,8.79
2023-03-15T00:31:37.728Z,8.85
2023-03-15T00:34:05.166Z,8.80
2023-03-15T00:36:33.721Z,8.78
2023-03-15T00:39:00.958Z,8.79
2023-03-15T00:41:28.367Z,8.75
2023-03-15T00:43:55.841Z,8.75
2023-03-15T00:46:23.502Z,8.89
2023-03-15T00:48:51.918Z,8.73
2023-03-15T00:51:21.912Z,8.64
2023-03-15T00:53:52.463Z,8.65
2023-03-15T00:56:23.535Z,8.69
2023-03-15T00:58:54.926Z,8.52
2023-03-15T01:01:26.580Z,8.54
2023-03-15T01:03:54.810Z,8.45
2023-03-15T01:06:27.683Z,8.41
2023-03-15T01:08:56.738Z,8.39
2023-03-15T01:11:27.534Z,8.54
2023-03-15T01:13:57.076Z,8.68
2023-03-15T01:16:25.093Z,8.70
2023-03-15T01:18:52.719Z,8.78
2023-03-15T01:21:22.833Z,8.94
2023-03-15T01:23:51.008Z,8.75
2023-03-15T01:26:21.991Z,8.62
2023-03-15T01:28:49.525Z,8.63
2023-03-15T01:31:28.920Z,8.58
2023-03-15T01:33:57.478Z,8.40
2023-03-15T01:36:27.569Z,8.44
2023-03-15T01:38:55.948Z,8.45
2023-03-15T01:41:28.416Z,8.52
2023-03-15T01:43:56.977Z,8.31
2023-03-15T01:46:34.402Z,8.25
2023-03-15T01:49:32.820Z,8.01
2023-03-15T01:52:05.883Z,7.95
2023-03-15T01:54:59.695Z,8.12
2023-03-15T01:57:36.153Z,8.13
2023-03-15T02:00:18.408Z,8.10
2023-03-15T02:03:17.068Z,8.16
2023-03-15T02:05:54.615Z,8.24
2023-03-15T02:08:47.016Z,8.18
2023-03-15T02:11:17.640Z,8.40
2023-03-15T02:13:48.008Z,8.69
2023-03-15T02:16:17.901Z,8.70
2023-03-15T02:18:52.677Z,8.73
2023-03-15T02:21:36.448Z,8.66
2023-03-15T02:24:19.988Z,8.50
2023-03-15T02:26:54.571Z,8.32
2023-03-15T02:29:25.817Z,8.34
2023-03-15T02:31:53.683Z,8.26
2023-03-15T02:34:25.430Z,8.24
2023-03-15T02:36:54.119Z,8.22
2023-03-15T02:39:23.513Z,8.28
2023-03-15T02:41:57.908Z,8.27
2023-03-15T02:44:36.656Z,8.27
2023-03-15T02:47:08.664Z,8.31
2023-03-15T02:49:39.514Z,8.29
2023-03-15T02:52:08.729Z,8.27
2023-03-15T02:54:36.730Z,8.20
2023-03-15T02:57:05.198Z,8.23
2023-03-15T02:59:33.683Z,8.16
2023-03-15T03:02:01.721Z,8.20
2023-03-15T03:04:29.754Z,8.14
2023-03-15T03:06:57.535Z,8.16
2023-03-15T03:09:32.356Z,8.16
2023-03-15T03:12:00.294Z,8.32
2023-03-15T03:14:28.631Z,8.76
2023-03-15T03:16:57.598Z,8.78
2023-03-15T03:19:25.694Z,8.55
2023-03-15T03:21:54.088Z,8.41
2023-03-15T03:24:21.780Z,8.21
2023-03-15T03:26:49.275Z,8.12
2023-03-15T03:29:17.060Z,8.09
2023-03-15T03:31:47.399Z,8.22
2023-03-15T03:34:15.900Z,8.11
2023-03-15T03:36:44.518Z,7.98
2023-03-15T03:39:15.141Z,7.92
2023-03-15T03:41:43.954Z,7.95
2023-03-15T03:44:13.378Z,7.84
2023-03-15T03:46:42.471Z,7.74
2023-03-15T03:49:10.374Z,7.60
2023-03-15T03:51:37.814Z,7.58
2023-03-15T03:54:05.209Z,7.53
2023-03-15T03:56:32.599Z,7.48
2023-03-15T03:59:00.870Z,7.50
2023-03-15T04:01:43.675Z,7.47
2023-03-15T04:04:14.093Z,7.49
2023-03-15T04:06:45.916Z,7.32
2023-03-15T04:09:16.537Z,7.40
2023-03-15T04:11:45.904Z,7.34
2023-03-15T04:14:14.587Z,7.29
2023-03-15T04:16:44.317Z,7.16
2023-03-15T04:19:14.288Z,7.15
2023-03-15T04:21:47.353Z,7.05
2023-03-15T04:24:50.693Z,7.08
2023-03-15T04:27:31.649Z,6.99
2023-03-15T04:30:06.854Z,6.94
2023-03-15T04:32:58.882Z,6.89
2023-03-15T04:36:04.728Z,7.01
2023-03-15T04:38:41.567Z,6.99
2023-03-15T04:41:34.830Z,7.03
2023-03-15T04:44:34.141Z,6.87
2023-03-15T04:47:28.167Z,6.91
2023-03-15T04:50:09.879Z,6.97
2023-03-15T04:52:52.643Z,6.93
2023-03-15T04:55:46.591Z,6.85
2023-03-15T04:58:40.778Z,6.70
2023-03-15T05:01:40.190Z,6.68
2023-03-15T05:04:17.164Z,6.71
2023-03-15T05:07:11.699Z,6.69
2023-03-15T05:10:07.061Z,6.63
2023-03-15T05:12:53.041Z,6.81
2023-03-15T05:15:39.066Z,6.67
2023-03-15T05:18:35.768Z,6.74
2023-03-15T05:21:13.287Z,6.75
2023-03-15T05:23:47.977Z,6.69
2023-03-15T05:26:29.613Z,6.79
2023-03-15T05:29:17.125Z,6.80
2023-03-15T05:32:05.130Z,6.90
2023-03-15T05:34:43.518Z,6.84
2023-03-15T05:37:35.724Z,6.82
2023-03-15T05:40:30.248Z,6.75
2023-03-15T05:43:07.962Z,6.76
2023-03-15T05:46:01.022Z,6.82
2023-03-15T05:48:46.884Z,6.82
2023-03-15T05:51:25.478Z,6.86
2023-03-15T05:54:08.203Z,6.88
2023-03-15T05:56:47.818Z,6.79
2023-03-15T05:59:33.710Z,6.69
2023-03-15T06:02:12.371Z,6.71
2023-03-15T06:04:47.839Z,6.74
2023-03-15T06:07:21.096Z,6.63
2023-03-15T06:09:48.433Z,6.83
2023-03-15T06:12:16.229Z,6.86
2023-03-15T06:14:44.445Z,6.91
2023-03-15T06:17:12.522Z,6.98
2023-03-15T06:19:43.608Z,7.10
2023-03-15T06:22:11.471Z,7.21
2023-03-15T06:24:47.227Z,7.37
2023-03-15T06:27:14.532Z,7.47
2023-03-15T06:29:41.792Z,7.74
2023-03-15T06:32:10.074Z,8.04
2023-03-15T06:34:39.372Z,8.23
2023-03-15T06:37:07.586Z,8.35
2023-03-15T06:39:35.522Z,8.62
2023-03-15T06:42:04.267Z,8.80
2023-03-15T06:44:37.244Z,8.89
2023-03-15T06:47:10.808Z,9.02
2023-03-15T06:49:38.722Z,9.23
2023-03-15T06:52:07.827Z,9.39
2023-03-15T06:54:35.229Z,9.59
2023-03-15T06:57:02.613Z,9.54
2023-03-15T06:59:30.587Z,9.67
2023-03-15T07:01:58.227Z,9.86
2023-03-15T07:04:25.926Z,9.89
2023-03-15T07:06:53.321Z,10.04
2023-03-15T07:09:21.011Z,10.23
2023-03-15T07:11:48.746Z,10.43
2023-03-15T07:14:16.462Z,10.49
2023-03-15T07:16:43.670Z,10.59
2023-03-15T07:19:11.038Z,10.81
2023-03-15T07:21:39.018Z,11.03
2023-03-15T07:24:07.044Z,11.20
2023-03-15T07:26:34.436Z,11.28
2023-03-15T07:29:01.731Z,11.31
2023-03-15T07:31:29.411Z,11.42
2023-03-15T07:33:56.766Z,11.40
2023-03-15T07:36:25.030Z,11.51
2023-03-15T07:38:52.829Z,11.47
2023-03-15T07:41:20.462Z,11.50
2023-03-15T07:44:13.807Z,11.56
2023-03-15T07:46:41.148Z,11.62
2023-03-15T07:49:08.436Z,11.71
2023-03-15T07:51:35.680Z,11.80
2023-03-15T07:54:03.553Z,11.82
2023-03-15T07:56:31.062Z,11.90
2023-03-15T07:58:58.830Z,11.93
2023-03-15T08:01:26.195Z,11.98
2023-03-15T08:03:53.438Z,12.04
2023-03-15T08:06:20.679Z,12.13
2023-03-15T08:08:48.408Z,12.15
2023-03-15T08:11:15.618Z,12.19
2023-03-15T08:13:42.913Z,12.16
2023-03-15T08:16:10.427Z,12.27
2023-03-15T08:18:38.353Z,12.32
2023-03-15T08:21:05.654Z,12.40
2023-03-15T08:23:33.438Z,12.46
2023-03-15T08:26:01.430Z,12.51
2023-03-15T08:28:28.753Z,12.54
2023-03-15T08:30:56.534Z,12.56
2023-03-15T08:33:24.577Z,12.58
2023-03-15T08:35:55.531Z,12.60
2023-03-15T08:38:23.374Z,12.59
2023-03-15T08:40:56.570Z,12.55
2023-03-15T08:43:24.319Z,12.58
2023-03-15T08:46:00.779Z,12.58
2023-03-15T08:48:30.259Z,12.60
2023-03-15T08:51:06.218Z,12.57
2023-03-15T08:53:34.209Z,12.60
2023-03-15T08:56:01.737Z,12.59
2023-03-15T08:58:29.171Z,12.62
2023-03-15T09:00:57.437Z,12.61
2023-03-15T09:03:25.362Z,12.75
2023-03-15T09:05:57.613Z,12.89
2023-03-15T09:08:26.422Z,12.93
2023-03-15T09:10:58.088Z,12.84
2023-03-15T09:13:26.720Z,12.75
2023-03-15T09:15:55.725Z,12.92
2023-03-15T09:18:23.655Z,13.11
2023-03-15T09:20:51.300Z,13.16
2023-03-15T09:23:18.617Z,13.07
2023-03-15T09:25:46.362Z,13.13
2023-03-15T09:28:14.521Z,13.34
2023-03-15T09:30:42.777Z,13.30
2023-03-15T09:33:10.421Z,13.33
2023-03-15T09:35:38.496Z,13.31
2023-03-15T09:38:05.802Z,13.31
2023-03-15T09:40:39.218Z,13.34
2023-03-15T09:43:06.481Z,13.67
2023-03-15T09:46:00.180Z,13.63
2023-03-15T09:48:55.585Z,13.39
2023-03-15T09:51:48.094Z,13.56
2023-03-15T09:54:36.241Z,13.59
2023-03-15T09:57:10.557Z,13.76
2023-03-15T09:59:43.919Z,13.84
2023-03-15T10:02:14.316Z,13.80
2023-03-15T10:04:45.533Z,13.67
2023-03-15T10:07:16.535Z,13.65
2023-03-15T10:09:45.519Z,13.68
2023-03-15T10:12:15.878Z,13.88
2023-03-15T10:15:21.436Z,14.09
2023-03-15T10:18:15.422Z,14.20
2023-03-15T10:20:53.096Z,14.11
2023-03-15T10:23:33.571Z,14.24
2023-03-15T10:26:04.425Z,14.25
2023-03-15T10:28:37.641Z,14.14
2023-03-15T10:31:25.709Z,14.23
2023-03-15T10:34:00.548Z,14.23
2023-03-15T10:36:28.683Z,14.60
2023-03-15T10:38:58.490Z,14.77
2023-03-15T10:41:38.829Z,14.74
2023-03-15T10:44:12.010Z,14.82
2023-03-15T10:46:39.952Z,14.84
2023-03-15T10:49:15.863Z,14.96
2023-03-15T10:51:46.181Z,15.14
2023-03-15T10:54:20.010Z,14.90
2023-03-15T10:56:56.459Z,14.79
2023-03-15T10:59:25.800Z,14.89
2023-03-15T11:02:15.138Z,14.84
2023-03-15T11:04:59.357Z,15.04
2023-03-15T11:07:27.484Z,15.18
2023-03-15T11:10:00.797Z,15.25
2023-03-15T11:12:31.602Z,15.37
2023-03-15T11:15:19.745Z,15.40
2023-03-15T11:17:49.812Z,15.18
2023-03-15T11:20:38.790Z,15.37
2023-03-15T11:23:19.713Z,15.63
2023-03-15T11:25:47.958Z,15.60
2023-03-15T11:28:23.232Z,15.69
2023-03-15T11:30:51.152Z,15.72
2023-03-15T11:33:56.785Z,15.72
2023-03-15T11:36:29.959Z,16.01
2023-03-15T11:39:02.928Z,15.69
2023-03-15T11:41:51.283Z,16.11
2023-03-15T11:44:41.065Z,16.21
2023-03-15T11:47:33.717Z,15.98
2023-03-15T11:50:01.921Z,16.14
2023-03-15T11:52:30.733Z,16.33
2023-03-15T11:55:01.391Z,16.64
2023-03-15T11:57:28.879Z,16.54
2023-03-15T11:59:57.425Z,16.49
2023-03-15T12:02:26.431Z,16.75
2023-03-15T12:04:55.040Z,16.63
2023-03-15T12:07:24.384Z,16.66
2023-03-15T12:09:56.000Z,16.67
2023-03-15T12:12:26.805Z,16.63
2023-03-15T12:15:15.904Z,16.92
2023-03-15T12:17:50.453Z,16.67
2023-03-15T12:20:20.237Z,16.51
2023-03-15T12:23:05.113Z,16.60
2023-03-15T12:25:45.496Z,17.05
2023-03-15T12:28:26.626Z,17.11
2023-03-15T12:30:57.229Z,16.86
2023-03-15T12:33:26.053Z,16.95
2023-03-15T12:36:01.345Z,17.35
2023-03-15T12:38:37.586Z,17.50
2023-03-15T12:41:29.784Z,17.23
2023-03-15T12:44:26.824Z,17.00
2023-03-15T12:46:57.116Z,16.86
2023-03-15T12:49:25.034Z,17.69
2023-03-15T12:52:16.135Z,17.52
2023-03-15T12:54:49.103Z,17.08
2023-03-15T12:57:23.395Z,17.58
2023-03-15T12:59:56.373Z,17.67
2023-03-15T13:02:42.160Z,17.44
2023-03-15T13:05:23.044Z,17.50
2023-03-15T13:07:53.855Z,17.37
2023-03-15T13:10:36.603Z,17.40
2023-03-15T13:13:23.959Z,17.53
2023-03-15T13:16:09.495Z,17.42
2023-03-15T13:18:49.601Z,17.52
2023-03-15T13:21:42.876Z,17.74
2023-03-15T13:24:23.695Z,17.73
2023-03-15T13:27:08.800Z,17.55
2023-03-15T13:29:36.447Z,17.48
2023-03-15T13:32:17.089Z,17.88
2023-03-15T13:34:46.978Z,18.09
2023-03-15T13:37:25.603Z,18.16
2023-03-15T13:40:08.762Z,17.90
2023-03-15T13:42:40.828Z,17.94
2023-03-15T13:45:16.253Z,18.28
2023-03-15T13:47:45.800Z,17.87
2023-03-15T13:50:20.403Z,18.09
2023-03-15T13:52:48.829Z,18.49
2023-03-15T13:55:22.365Z,18.50
2023-03-15T13:57:55.320Z,18.58
2023-03-15T14:00:23.589Z,18.23
2023-03-15T14:03:01.165Z,18.62
2023-03-15T14:05:32.709Z,19.24
2023-03-15T14:08:06.095Z,22.26
2023-03-15T14:10:39.766Z,25.45
2023-03-15T14:13:34.902Z,27.63
2023-03-15T14:16:04.802Z,30.42
2023-03-15T14:18:37.432Z,31.16
2023-03-15T14:21:27.764Z,32.54
2023-03-15T14:23:55.198Z,31.34
2023-03-15T14:26:29.934Z,30.54
2023-03-15T14:29:02.405Z,32.43
2023-03-15T14:31:34.597Z,30.86
2023-03-15T14:34:09.596Z,32.81
2023-03-15T14:36:43.234Z,35.63
2023-03-15T14:39:30.279Z,34.06
2023-03-15T14:41:58.172Z,31.29
2023-03-15T14:44:25.537Z,34.79
2023-03-15T14:46:53.048Z,35.29
2023-03-15T14:49:26.431Z,34.17
2023-03-15T14:52:03.463Z,32.42
2023-03-15T14:54:32.465Z,29.79
2023-03-15T14:57:00.840Z,29.18
2023-03-15T14:59:28.176Z,29.59
2023-03-15T15:01:58.548Z,30.66
2023-03-15T15:04:33.403Z,31.37
2023-03-15T15:07:03.620Z,32.10
2023-03-15T15:09:31.574Z,31.45
2023-03-15T15:11:59.523Z,31.19
2023-03-15T15:14:26.901Z,30.88
2023-03-15T15:16:54.444Z,31.78
2023-03-15T15:19:21.864Z,31.75
2023-03-15T15:21:49.627Z,29.94
2023-03-15T15:24:20.198Z,29.57
2023-03-15T15:26:47.637Z,27.95
2023-03-15T15:29:16.913Z,28.97
2023-03-15T15:31:45.660Z,29.13
2023-03-15T15:34:13.385Z,28.77
2023-03-15T15:36:45.067Z,27.38
2023-03-15T15:39:18.198Z,26.90
2023-03-15T15:41:45.489Z,27.28
2023-03-15T15:44:17.042Z,26.34
2023-03-15T15:46:44.774Z,24.38
2023-03-15T15:49:12.125Z,23.36
2023-03-15T15:51:48.912Z,22.38
2023-03-15T15:54:24.772Z,22.44
2023-03-15T15:56:55.534Z,22.31
2023-03-15T15:59:25.521Z,22.21
2023-03-15T16:02:00.600Z,22.67
2023-03-15T16:04:28.604Z,22.35
2023-03-15T16:06:59.512Z,23.92
2023-03-15T16:09:30.009Z,25.91
2023-03-15T16:11:58.482Z,27.56
2023-03-15T16:14:26.259Z,27.98
2023-03-15T16:16:53.662Z,28.09
2023-03-15T16:19:20.904Z,26.16
2023-03-15T16:21:52.087Z,26.23
2023-03-15T16:24:21.760Z,25.48
2023-03-15T16:26:50.535Z,26.12
2023-03-15T16:29:22.338Z,24.37
2023-03-15T16:31:51.066Z,24.64
2023-03-15T16:34:23.596Z,27.97
2023-03-15T16:36:54.863Z,28.78
2023-03-15T16:39:23.023Z,24.84
2023-03-15T16:41:52.083Z,23.19
2023-03-15T16:44:22.026Z,21.42
2023-03-15T16:46:49.500Z,20.35
2023-03-15T16:49:17.440Z,20.47
2023-03-15T16:51:51.177Z,18.86
2023-03-15T16:54:38.211Z,18.04
2023-03-15T16:57:22.119Z,17.41
2023-03-15T16:59:51.043Z,17.14
2023-03-15T17:02:24.131Z,17.32
2023-03-15T17:04:52.885Z,16.55
2023-03-15T17:07:27.650Z,16.15
2023-03-15T17:09:56.017Z,15.94
2023-03-15T17:12:28.894Z,15.66
2023-03-15T17:14:59.189Z,15.60
2023-03-15T17:17:32.476Z,15.82
2023-03-15T17:20:01.635Z,15.51
2023-03-15T17:22:29.524Z,15.30
2023-03-15T17:24:56.919Z,15.41
2023-03-15T17:27:34.853Z,15.24
2023-03-15T17:30:02.638Z,14.99
2023-03-15T17:32:30.108Z,15.06
2023-03-15T17:34:58.966Z,14.87
2023-03-15T17:37:35.571Z,14.80
2023-03-15T17:40:12.319Z,14.65
2023-03-15T17:42:39.880Z,14.54
2023-03-15T17:45:20.837Z,14.72
2023-03-15T17:47:49.242Z,14.68
2023-03-15T17:50:18.579Z,14.57
2023-03-15T17:52:51.112Z,14.48
2023-03-15T17:55:21.819Z,14.26
2023-03-15T17:57:55.081Z,14.29
2023-03-15T18:00:24.910Z,14.20
2023-03-15T18:02:55.885Z,14.22
2023-03-15T18:05:27.048Z,14.21
2023-03-15T18:07:58.946Z,13.99
2023-03-15T18:10:34.783Z,13.77
2023-03-15T18:13:03.139Z,14.04
2023-03-15T18:15:30.892Z,13.81
2023-03-15T18:17:58.641Z,14.06
2023-03-15T18:20:27.832Z,14.09
2023-03-15T18:22:55.259Z,14.08
2023-03-15T18:25:25.394Z,13.96
2023-03-15T18:27:53.474Z,13.94
2023-03-15T18:30:23.593Z,13.83
2023-03-15T18:32:53.563Z,13.61
2023-03-15T18:35:27.924Z,13.58
2023-03-15T18:37:57.384Z,13.49
2023-03-15T18:40:27.791Z,13.41
2023-03-15T18:42:57.151Z,13.25
2023-03-15T18:45:35.599Z,13.19
2023-03-15T18:48:04.411Z,13.37
2023-03-15T18:50:33.381Z,13.13
2023-03-15T18:53:01.609Z,13.14
2023-03-15T18:55:29.348Z,13.16
2023-03-15T18:57:56.742Z,12.98
2023-03-15T19:00:27.327Z,13.05
2023-03-15T19:02:57.534Z,13.18
2023-03-15T19:05:26.083Z,13.10
2023-03-15T19:07:54.497Z,12.78
2023-03-15T19:10:23.702Z,13.03
2023-03-15T19:12:53.064Z,13.00
2023-03-15T19:15:22.521Z,12.74
2023-03-15T19:17:54.539Z,12.75
2023-03-15T19:20:24.556Z,12.78
2023-03-15T19:22:52.682Z,12.79
2023-03-15T19:25:21.496Z,12.81
2023-03-15T19:27:49.394Z,12.75
2023-03-15T19:30:20.864Z,12.62
2023-03-15T19:32:50.616Z,12.90
2023-03-15T19:35:19.479Z,12.77
2023-03-15T19:37:48.298Z,12.60
2023-03-15T19:40:16.571Z,12.68
2023-03-15T19:42:44.211Z,12.19
2023-03-15T19:45:12.058Z,12.08
2023-03-15T19:47:40.080Z,12.27
2023-03-15T19:50:08.721Z,12.26
2023-03-15T19:52:39.944Z,12.36
2023-03-15T19:55:08.943Z,12.44
2023-03-15T19:57:36.766Z,12.49
2023-03-15T20:00:05.618Z,12.51
2023-03-15T20:02:33.612Z,12.36
2023-03-15T20:05:07.042Z,12.43
2023-03-15T20:07:35.603Z,12.23
2023-03-15T20:10:08.711Z,12.11
2023-03-15T20:12:39.436Z,12.55
2023-03-15T20:15:10.017Z,12.40
2023-03-15T20:17:38.066Z,11.80
2023-03-15T20:20:10.227Z,12.04
2023-03-15T20:22:41.346Z,11.99
2023-03-15T20:25:14.134Z,11.99
2023-03-15T20:27:42.210Z,11.75
2023-03-15T20:30:12.780Z,11.88
2023-03-15T20:32:42.248Z,11.78
2023-03-15T20:35:11.037Z,11.44
2023-03-15T20:37:40.828Z,11.20
2023-03-15T20:40:14.627Z,11.33
2023-03-15T20:42:43.220Z,11.44
2023-03-15T20:45:13.575Z,11.17
2023-03-15T20:47:42.030Z,11.28
2023-03-15T20:50:12.314Z,11.37
2023-03-15T20:52:43.679Z,11.39
2023-03-15T20:55:13.851Z,11.45
2023-03-15T20:57:42.728Z,11.24
2023-03-15T21:00:18.202Z,11.05
2023-03-15T21:02:48.678Z,11.39
2023-03-15T21:05:18.873Z,11.24
2023-03-15T21:07:47.479Z,11.43
2023-03-15T21:10:16.261Z,11.26
2023-03-15T21:12:46.005Z,10.98
2023-03-15T21:15:17.511Z,10.83
2023-03-15T21:17:46.552Z,10.98
2023-03-15T21:20:15.559Z,10.68
2023-03-15T21:22:44.297Z,10.78
2023-03-15T21:25:13.295Z,10.57
2023-03-15T21:27:40.969Z,10.41
2023-03-15T21:30:09.576Z,10.23
2023-03-15T21:32:38.249Z,10.33
2023-03-15T21:35:07.532Z,10.33
2023-03-15T21:37:35.415Z,10.14
2023-03-15T21:40:05.275Z,10.38
2023-03-15T21:42:34.509Z,10.53
2023-03-15T21:45:02.342Z,10.52
2023-03-15T21:47:31.111Z,10.32
2023-03-15T21:49:58.502Z,10.35
2023-03-15T21:52:26.302Z,10.18
2023-03-15T21:54:56.532Z,9.88
2023-03-15T21:57:24.573Z,9.82
2023-03-15T21:59:52.961Z,9.89
2023-03-15T22:02:20.496Z,9.58
2023-03-15T22:04:50.393Z,9.62
2023-03-15T22:07:17.817Z,9.72
2023-03-15T22:09:46.068Z,9.65
2023-03-15T22:12:15.607Z,9.67
2023-03-15T22:14:44.610Z,9.89
2023-03-15T22:17:13.353Z,9.74
2023-03-15T22:19:41.976Z,9.63
2023-03-15T22:22:10.467Z,9.72
2023-03-15T22:24:38.087Z,9.67
2023-03-15T22:27:06.212Z,9.39
2023-03-15T22:29:33.838Z,9.36
2023-03-15T22:32:01.150Z,9.34
2023-03-15T22:34:28.705Z,9.21
2023-03-15T22:36:56.601Z,9.11
2023-03-15T22:39:24.064Z,9.22
2023-03-15T22:41:51.454Z,9.22
2023-03-15T22:44:18.905Z,9.53
2023-03-15T22:46:46.667Z,9.59
2023-03-15T22:49:14.699Z,9.42
2023-03-15T22:51:42.959Z,9.33
2023-03-15T22:54:11.503Z,9.36
